createdAt,value
2022-07-31T00:00:13.697Z,14.83
2022-07-31T00:02:40.479Z,14.73
2022-07-31T00:05:07.995Z,14.74
2022-07-31T00:07:34.795Z,14.73
2022-07-31T00:10:01.805Z,14.73
2022-07-31T00:12:28.633Z,14.84
2022-07-31T00:14:55.586Z,14.77
2022-07-31T00:17:22.377Z,14.83
2022-07-31T00:19:49.168Z,14.83
2022-07-31T00:22:16.166Z,14.63
2022-07-31T00:24:43.011Z,14.46
2022-07-31T00:27:10.946Z,14.39
2022-07-31T00:29:38.720Z,14.28
2022-07-31T00:32:06.183Z,14.43
2022-07-31T00:34:33.112Z,14.56
2022-07-31T00:37:00.073Z,14.65
2022-07-31T00:39:27.106Z,14.71
2022-07-31T00:41:55.183Z,14.75
2022-07-31T00:44:22.018Z,14.68
2022-07-31T00:46:49.961Z,14.78
2022-07-31T00:49:16.822Z,14.75
2022-07-31T00:51:43.709Z,14.73
2022-07-31T00:54:22.357Z,14.62
2022-07-31T00:56:51.447Z,14.45
2022-07-31T00:59:24.474Z,14.38
2022-07-31T01:01:51.886Z,14.50
2022-07-31T01:04:19.889Z,14.50
2022-07-31T01:06:47.311Z,14.15
2022-07-31T01:09:15.159Z,13.94
2022-07-31T01:11:50.995Z,13.95
2022-07-31T01:14:20.689Z,13.80
2022-07-31T01:16:50.363Z,13.75
2022-07-31T01:19:42.712Z,13.73
2022-07-31T01:22:42.773Z,13.87
2022-07-31T01:25:23.741Z,13.78
2022-07-31T01:28:30.623Z,13.89
2022-07-31T01:31:25.638Z,13.72
2022-07-31T01:34:11.694Z,13.90
2022-07-31T01:36:46.493Z,13.76
2022-07-31T01:39:13.455Z,13.93
2022-07-31T01:41:43.574Z,13.90
2022-07-31T01:44:14.203Z,13.95
2022-07-31T01:46:43.848Z,14.03
2022-07-31T01:49:11.969Z,14.09
2022-07-31T01:51:41.119Z,14.07
2022-07-31T01:54:08.987Z,14.09
2022-07-31T01:56:36.751Z,13.98
2022-07-31T01:59:05.278Z,14.03
2022-07-31T02:01:53.511Z,13.99
2022-07-31T02:04:21.814Z,13.95
2022-07-31T02:06:50.449Z,14.06
2022-07-31T02:09:20.857Z,14.13
2022-07-31T02:11:54.379Z,14.05
2022-07-31T02:14:36.293Z,14.15
2022-07-31T02:17:03.537Z,14.14
2022-07-31T02:19:31.141Z,14.28
2022-07-31T02:21:59.951Z,14.45
2022-07-31T02:24:26.938Z,14.31
2022-07-31T02:26:54.485Z,14.33
2022-07-31T02:29:23.095Z,14.08
2022-07-31T02:32:02.502Z,14.04
2022-07-31T02:34:32.596Z,14.13
2022-07-31T02:37:02.281Z,14.27
2022-07-31T02:39:31.356Z,14.22
2022-07-31T02:42:01.910Z,14.14
2022-07-31T02:44:32.387Z,14.20
2022-07-31T02:47:02.571Z,14.31
2022-07-31T02:49:31.950Z,14.32
2022-07-31T02:51:58.977Z,14.34
2022-07-31T02:54:26.484Z,14.29
2022-07-31T02:56:53.781Z,14.21
2022-07-31T02:59:22.461Z,14.22
2022-07-31T03:01:49.237Z,14.10
2022-07-31T03:04:16.101Z,14.02
2022-07-31T03:06:43.524Z,14.00
2022-07-31T03:09:10.423Z,14.14
2022-07-31T03:11:37.409Z,14.08
2022-07-31T03:14:05.598Z,13.99
2022-07-31T03:16:34.181Z,14.02
2022-07-31T03:19:03.068Z,14.09
2022-07-31T03:21:31.597Z,14.23
2022-07-31T03:23:59.908Z,14.31
2022-07-31T03:26:27.272Z,14.02
2022-07-31T03:28:54.515Z,13.77
2022-07-31T03:31:22.317Z,13.88
2022-07-31T03:33:49.057Z,13.77
2022-07-31T03:36:16.108Z,13.92
2022-07-31T03:38:46.489Z,13.85
2022-07-31T03:41:16.153Z,13.95
2022-07-31T03:43:47.781Z,14.09
2022-07-31T03:46:20.566Z,14.13
2022-07-31T03:48:47.994Z,14.18
2022-07-31T03:51:15.982Z,14.16
2022-07-31T03:53:44.208Z,13.90
2022-07-31T03:56:11.844Z,13.69
2022-07-31T03:58:39.029Z,13.68
2022-07-31T04:01:08.929Z,13.72
2022-07-31T04:03:38.926Z,13.75
2022-07-31T04:06:05.796Z,13.55
2022-07-31T04:08:34.073Z,13.46
2022-07-31T04:11:00.920Z,13.37
2022-07-31T04:13:28.550Z,13.37
2022-07-31T04:15:55.364Z,13.54
2022-07-31T04:18:22.116Z,13.50
2022-07-31T04:20:48.937Z,13.58
2022-07-31T04:23:16.773Z,13.67
2022-07-31T04:25:43.560Z,13.70
2022-07-31T04:28:10.381Z,13.55
2022-07-31T04:30:37.834Z,13.69
2022-07-31T04:33:04.671Z,13.63
2022-07-31T04:35:31.437Z,13.57
2022-07-31T04:37:58.194Z,13.68
2022-07-31T04:40:26.467Z,13.67
2022-07-31T04:42:56.829Z,13.53
2022-07-31T04:45:23.634Z,13.56
2022-07-31T04:47:50.529Z,13.60
2022-07-31T04:50:17.362Z,13.44
2022-07-31T04:52:44.131Z,13.54
2022-07-31T04:55:10.979Z,13.64
2022-07-31T04:57:37.940Z,13.73
2022-07-31T05:00:09.600Z,13.70
2022-07-31T05:02:37.332Z,13.79
2022-07-31T05:05:04.975Z,13.87
2022-07-31T05:07:31.721Z,13.92
2022-07-31T05:09:58.848Z,14.03
2022-07-31T05:12:26.224Z,14.09
2022-07-31T05:14:53.612Z,14.18
2022-07-31T05:17:20.614Z,14.27
2022-07-31T05:19:47.459Z,14.18
2022-07-31T05:22:14.290Z,14.26
2022-07-31T05:24:43.124Z,14.38
2022-07-31T05:27:09.946Z,14.48
2022-07-31T05:29:36.751Z,14.44
2022-07-31T05:32:03.729Z,14.58
2022-07-31T05:34:30.904Z,14.70
2022-07-31T05:37:01.511Z,14.71
2022-07-31T05:39:29.250Z,14.48
2022-07-31T05:41:56.074Z,14.63
2022-07-31T05:44:22.931Z,14.82
2022-07-31T05:49:16.365Z,15.10
2022-07-31T05:51:45.590Z,15.26
2022-07-31T05:54:12.400Z,15.32
2022-07-31T05:56:39.168Z,15.47
2022-07-31T05:59:05.965Z,15.63
2022-07-31T06:01:32.863Z,15.74
2022-07-31T06:03:59.717Z,15.80
2022-07-31T06:06:26.506Z,15.94
2022-07-31T06:08:53.340Z,16.14
2022-07-31T06:11:20.567Z,16.21
2022-07-31T06:13:47.401Z,16.13
2022-07-31T06:16:15.436Z,16.50
2022-07-31T06:18:42.869Z,16.58
2022-07-31T06:21:09.952Z,16.75
2022-07-31T06:23:37.013Z,16.76
2022-07-31T06:26:04.321Z,16.74
2022-07-31T06:28:47.976Z,16.88
2022-07-31T06:31:20.839Z,17.03
2022-07-31T06:33:48.860Z,17.08
2022-07-31T06:36:18.431Z,17.33
2022-07-31T06:38:46.133Z,17.54
2022-07-31T06:41:36.352Z,17.76
2022-07-31T06:44:03.661Z,17.90
2022-07-31T06:46:30.473Z,18.05
2022-07-31T06:48:57.545Z,18.19
2022-07-31T06:51:32.347Z,18.23
2022-07-31T06:54:00.762Z,18.29
2022-07-31T06:56:29.161Z,18.49
2022-07-31T06:58:56.369Z,18.67
2022-07-31T07:01:23.354Z,18.77
2022-07-31T07:03:50.519Z,18.92
2022-07-31T07:06:18.282Z,18.86
2022-07-31T07:08:45.835Z,19.02
2022-07-31T07:11:12.932Z,19.18
2022-07-31T07:13:45.829Z,19.38
2022-07-31T07:16:14.449Z,19.42
2022-07-31T07:18:41.939Z,19.56
2022-07-31T07:21:09.057Z,19.53
2022-07-31T07:23:36.025Z,19.63
2022-07-31T07:26:03.480Z,19.78
2022-07-31T07:28:31.413Z,19.92
2022-07-31T07:30:58.597Z,19.94
2022-07-31T07:33:40.651Z,20.12
2022-07-31T07:36:23.864Z,20.27
2022-07-31T07:38:55.430Z,20.48
2022-07-31T07:41:24.061Z,20.44
2022-07-31T07:43:51.697Z,20.79
2022-07-31T07:46:21.081Z,21.12
2022-07-31T07:48:49.254Z,21.33
2022-07-31T07:51:16.212Z,21.54
2022-07-31T07:53:42.998Z,21.72
2022-07-31T07:56:09.782Z,21.87
2022-07-31T07:58:36.580Z,22.02
2022-07-31T08:01:03.567Z,22.10
2022-07-31T08:03:49.331Z,22.33
2022-07-31T08:06:17.201Z,22.47
2022-07-31T08:08:44.055Z,22.58
2022-07-31T08:11:10.904Z,22.73
2022-07-31T08:13:49.342Z,22.79
2022-07-31T08:16:17.658Z,22.92
2022-07-31T08:18:44.529Z,23.00
2022-07-31T08:21:11.537Z,23.19
2022-07-31T08:23:38.589Z,23.39
2022-07-31T08:26:08.386Z,23.55
2022-07-31T08:28:36.254Z,23.60
2022-07-31T08:31:03.419Z,23.81
2022-07-31T08:33:30.370Z,23.73
2022-07-31T08:35:57.155Z,23.95
2022-07-31T08:38:24.212Z,24.15
2022-07-31T08:40:51.024Z,24.38
2022-07-31T08:46:05.257Z,24.76
2022-07-31T08:48:33.445Z,25.06
2022-07-31T08:51:03.853Z,25.15
2022-07-31T08:53:33.176Z,25.24
2022-07-31T08:56:00.628Z,25.42
2022-07-31T08:58:27.415Z,25.52
2022-07-31T09:00:54.980Z,25.62
2022-07-31T09:03:21.898Z,25.79
2022-07-31T09:05:49.048Z,25.91
2022-07-31T09:08:15.900Z,26.00
2022-07-31T09:10:47.730Z,26.30
2022-07-31T09:13:18.738Z,26.45
2022-07-31T09:15:46.528Z,26.49
2022-07-31T09:18:17.829Z,26.54
2022-07-31T09:21:05.033Z,26.76
2022-07-31T09:23:34.951Z,26.82
2022-07-31T09:26:05.609Z,26.97
2022-07-31T09:28:39.248Z,27.06
2022-07-31T09:31:08.879Z,27.23
2022-07-31T09:33:42.310Z,27.16
2022-07-31T09:36:10.556Z,27.19
2022-07-31T09:38:42.142Z,27.24
2022-07-31T09:41:56.671Z,27.32
2022-07-31T09:44:09.876Z,27.18
2022-07-31T09:46:47.040Z,27.25
2022-07-31T09:49:14.904Z,27.28
2022-07-31T09:51:47.181Z,27.31
2022-07-31T09:54:24.530Z,27.29
2022-07-31T09:56:51.625Z,27.47
2022-07-31T09:59:18.777Z,27.60
2022-07-31T10:01:49.374Z,27.80
2022-07-31T10:04:21.585Z,27.87
2022-07-31T10:06:51.237Z,27.87
2022-07-31T10:09:21.897Z,28.04
2022-07-31T10:11:50.580Z,28.34
2022-07-31T10:14:32.459Z,28.28
2022-07-31T10:17:04.961Z,28.36
2022-07-31T10:19:38.402Z,28.19
2022-07-31T10:22:06.938Z,28.19
2022-07-31T10:24:41.058Z,28.14
2022-07-31T10:27:09.810Z,27.65
2022-07-31T10:29:39.433Z,27.85
2022-07-31T10:32:09.877Z,27.73
2022-07-31T10:34:37.476Z,27.77
2022-07-31T10:37:18.817Z,27.85
2022-07-31T10:40:11.358Z,27.86
2022-07-31T10:42:52.987Z,28.01
2022-07-31T10:45:19.861Z,27.78
2022-07-31T10:48:00.809Z,27.69
2022-07-31T10:50:30.597Z,27.86
2022-07-31T10:53:15.480Z,28.02
2022-07-31T10:55:43.544Z,28.04
2022-07-31T10:58:19.364Z,28.13
2022-07-31T11:00:46.188Z,28.31
2022-07-31T11:03:22.425Z,28.39
2022-07-31T11:06:00.829Z,28.50
2022-07-31T11:08:28.574Z,28.67
2022-07-31T11:10:57.418Z,28.83
2022-07-31T11:13:33.623Z,28.99
2022-07-31T11:16:06.089Z,28.92
2022-07-31T11:18:34.663Z,29.15
2022-07-31T11:21:22.422Z,29.43
2022-07-31T11:23:56.179Z,29.50
2022-07-31T11:26:33.727Z,29.76
2022-07-31T11:30:00.679Z,30.16
2022-07-31T11:32:01.846Z,30.53
2022-07-31T11:34:28.593Z,30.72
2022-07-31T11:36:55.437Z,30.97
2022-07-31T11:39:28.321Z,31.20
2022-07-31T11:42:07.413Z,31.01
2022-07-31T11:44:35.196Z,30.46
2022-07-31T11:47:02.489Z,30.54
2022-07-31T11:49:41.687Z,30.50
2022-07-31T11:52:30.776Z,30.60
2022-07-31T11:55:09.599Z,30.89
2022-07-31T11:57:51.762Z,30.65
2022-07-31T12:00:26.711Z,31.10
2022-07-31T12:02:58.111Z,31.46
2022-07-31T12:05:38.636Z,31.59
2022-07-31T12:08:08.109Z,31.30
2022-07-31T12:10:35.519Z,31.38
2022-07-31T12:13:02.963Z,31.41
2022-07-31T12:15:29.892Z,31.71
2022-07-31T12:18:05.498Z,31.45
2022-07-31T12:20:36.254Z,31.44
2022-07-31T12:23:05.629Z,31.26
2022-07-31T12:25:45.714Z,31.23
2022-07-31T12:28:14.612Z,31.25
2022-07-31T12:30:42.872Z,31.39
2022-07-31T12:33:11.556Z,31.43
2022-07-31T12:35:56.475Z,31.51
2022-07-31T12:38:45.551Z,30.87
2022-07-31T12:41:13.865Z,31.00
2022-07-31T12:43:50.018Z,31.01
2022-07-31T12:46:37.959Z,31.26
2022-07-31T12:49:06.737Z,31.38
2022-07-31T12:51:44.922Z,31.40
2022-07-31T12:54:16.033Z,31.34
2022-07-31T12:56:43.406Z,31.21
2022-07-31T12:59:12.252Z,31.46
2022-07-31T13:01:39.471Z,31.46
2022-07-31T13:04:07.906Z,31.20
2022-07-31T13:06:45.765Z,31.19
2022-07-31T13:09:12.570Z,31.13
2022-07-31T13:11:46.536Z,31.05
2022-07-31T13:14:20.065Z,31.13
2022-07-31T13:16:48.574Z,31.30
2022-07-31T13:19:15.619Z,31.23
2022-07-31T13:21:49.065Z,31.05
2022-07-31T13:24:21.206Z,31.40
2022-07-31T13:26:49.526Z,30.72
2022-07-31T13:29:17.343Z,31.05
2022-07-31T13:31:44.530Z,31.19
2022-07-31T13:34:12.128Z,31.33
2022-07-31T13:36:39.925Z,31.09
2022-07-31T13:39:10.892Z,31.31
2022-07-31T13:41:39.485Z,31.33
2022-07-31T13:44:07.686Z,31.49
2022-07-31T13:46:35.136Z,31.78
2022-07-31T13:49:03.199Z,31.98
2022-07-31T13:51:30.291Z,31.74
2022-07-31T13:53:57.327Z,31.67
2022-07-31T13:56:41.762Z,31.81
2022-07-31T13:59:11.794Z,32.05
2022-07-31T14:02:03.188Z,32.14
2022-07-31T14:04:31.391Z,31.57
2022-07-31T14:07:03.362Z,31.75
2022-07-31T14:09:31.627Z,32.25
2022-07-31T14:11:58.450Z,32.68
2022-07-31T14:14:25.439Z,32.72
2022-07-31T14:16:52.371Z,33.30
2022-07-31T14:19:20.823Z,33.87
2022-07-31T14:21:56.235Z,33.85
2022-07-31T14:24:36.958Z,33.81
2022-07-31T14:27:04.411Z,33.27
2022-07-31T14:29:31.247Z,33.24
2022-07-31T14:32:03.258Z,33.34
2022-07-31T14:34:35.514Z,33.11
2022-07-31T14:37:02.754Z,32.61
2022-07-31T14:39:30.158Z,32.59
2022-07-31T14:41:56.982Z,32.34
2022-07-31T14:44:23.916Z,31.91
2022-07-31T14:46:56.278Z,31.81
2022-07-31T14:49:23.194Z,31.76
2022-07-31T14:51:50.039Z,31.36
2022-07-31T14:54:16.914Z,31.42
2022-07-31T14:57:00.646Z,31.29
2022-07-31T14:59:32.046Z,31.35
2022-07-31T15:01:59.250Z,31.26
2022-07-31T15:04:26.495Z,31.20
2022-07-31T15:07:12.674Z,31.11
2022-07-31T15:09:40.530Z,31.03
2022-07-31T15:12:07.968Z,31.07
2022-07-31T15:14:35.231Z,31.02
2022-07-31T15:17:02.132Z,30.95
2022-07-31T15:19:29.038Z,31.18
2022-07-31T15:22:10.283Z,31.27
2022-07-31T15:24:48.241Z,31.60
2022-07-31T15:27:18.717Z,31.92
2022-07-31T15:30:03.611Z,31.95
2022-07-31T15:32:32.769Z,31.47
2022-07-31T15:34:59.616Z,31.35
2022-07-31T15:37:26.421Z,31.20
2022-07-31T15:40:02.809Z,31.29
2022-07-31T15:42:38.310Z,31.34
2022-07-31T15:45:07.691Z,30.85
2022-07-31T15:47:34.823Z,30.70
2022-07-31T15:50:01.729Z,30.77
2022-07-31T15:52:28.611Z,31.00
2022-07-31T15:54:55.546Z,31.40
2022-07-31T15:57:23.702Z,31.52
2022-07-31T15:59:54.393Z,31.74
2022-07-31T16:02:23.633Z,32.02
2022-07-31T16:04:54.849Z,32.20
2022-07-31T16:08:30.115Z,31.73
2022-07-31T16:10:16.540Z,31.95
2022-07-31T16:12:47.257Z,32.07
2022-07-31T16:15:16.634Z,32.12
2022-07-31T16:17:45.002Z,32.15
2022-07-31T16:20:25.802Z,32.28
2022-07-31T16:23:02.569Z,32.39
2022-07-31T16:25:32.181Z,32.19
2022-07-31T16:28:02.721Z,32.39
2022-07-31T16:30:29.581Z,32.43
2022-07-31T16:32:56.658Z,32.34
2022-07-31T16:35:26.417Z,32.33
2022-07-31T16:37:54.389Z,32.27
2022-07-31T16:40:29.166Z,32.01
2022-07-31T16:43:47.560Z,32.02
2022-07-31T16:45:51.036Z,31.78
2022-07-31T16:48:21.000Z,31.70
2022-07-31T16:50:54.442Z,31.62
2022-07-31T16:54:10.367Z,31.79
2022-07-31T16:56:15.413Z,31.73
2022-07-31T16:58:43.850Z,31.71
2022-07-31T17:01:57.394Z,31.72
2022-07-31T17:04:01.844Z,31.48
2022-07-31T17:06:38.548Z,31.23
2022-07-31T17:09:17.446Z,31.03
2022-07-31T17:11:53.183Z,30.96
2022-07-31T17:14:23.221Z,30.70
2022-07-31T17:16:52.051Z,30.53
2022-07-31T17:19:35.884Z,30.29
2022-07-31T17:22:04.044Z,30.60
2022-07-31T17:24:32.049Z,30.67
2022-07-31T17:26:59.883Z,30.34
2022-07-31T17:29:26.737Z,30.35
2022-07-31T17:31:53.570Z,30.39
2022-07-31T17:34:20.403Z,30.28
2022-07-31T17:36:50.240Z,30.07
2022-07-31T17:39:17.268Z,30.06
2022-07-31T17:41:44.330Z,29.72
2022-07-31T17:44:11.178Z,29.63
2022-07-31T17:46:48.117Z,29.59
2022-07-31T17:49:19.437Z,29.51
2022-07-31T17:51:58.935Z,29.46
2022-07-31T17:54:31.719Z,29.21
2022-07-31T17:56:59.873Z,29.29
2022-07-31T17:59:27.704Z,29.15
2022-07-31T18:02:01.118Z,28.85
2022-07-31T18:04:34.209Z,28.95
2022-07-31T18:07:04.496Z,28.71
2022-07-31T18:09:32.363Z,28.61
2022-07-31T18:12:02.988Z,28.28
2022-07-31T18:14:30.178Z,27.97
2022-07-31T18:16:57.044Z,27.80
2022-07-31T18:19:23.971Z,27.59
2022-07-31T18:21:52.217Z,27.63
2022-07-31T18:24:20.883Z,27.45
2022-07-31T18:26:48.053Z,27.29
2022-07-31T18:29:17.112Z,27.22
2022-07-31T18:31:44.822Z,27.27
2022-07-31T18:34:13.118Z,27.19
2022-07-31T18:36:40.530Z,27.03
2022-07-31T18:39:07.760Z,26.68
2022-07-31T18:41:34.673Z,26.67
2022-07-31T18:44:02.079Z,26.52
2022-07-31T18:46:29.140Z,26.46
2022-07-31T18:48:56.785Z,26.31
2022-07-31T18:51:25.606Z,26.26
2022-07-31T18:53:54.759Z,26.29
2022-07-31T18:56:24.045Z,25.86
2022-07-31T18:58:52.210Z,26.05
2022-07-31T19:01:19.161Z,25.75
2022-07-31T19:03:46.045Z,25.68
2022-07-31T19:06:13.002Z,25.53
2022-07-31T19:08:45.046Z,25.35
2022-07-31T19:11:12.601Z,25.16
2022-07-31T19:13:39.543Z,25.18
2022-07-31T19:16:06.913Z,25.05
2022-07-31T19:18:34.221Z,24.77
2022-07-31T19:21:23.619Z,24.65
2022-07-31T19:23:49.751Z,24.71
2022-07-31T19:26:16.789Z,24.54
2022-07-31T19:28:43.936Z,24.40
2022-07-31T19:31:13.419Z,24.18
2022-07-31T19:33:41.234Z,24.14
2022-07-31T19:36:10.754Z,24.13
2022-07-31T19:38:37.654Z,23.69
2022-07-31T19:41:04.626Z,23.69
2022-07-31T19:43:31.638Z,23.61
2022-07-31T19:46:10.042Z,23.62
2022-07-31T19:48:44.481Z,23.42
2022-07-31T19:51:13.315Z,23.20
2022-07-31T19:53:41.822Z,23.26
2022-07-31T19:56:10.791Z,23.18
2022-07-31T19:58:41.341Z,22.84
2022-07-31T20:01:09.992Z,22.89
2022-07-31T20:03:37.165Z,22.73
2022-07-31T20:08:36.859Z,22.53
2022-07-31T20:11:05.459Z,22.43
2022-07-31T20:13:34.457Z,22.15
2022-07-31T20:16:01.763Z,22.17
2022-07-31T20:18:29.404Z,22.23
2022-07-31T20:21:04.914Z,21.94
2022-07-31T20:23:34.429Z,22.03
2022-07-31T20:26:01.628Z,21.93
2022-07-31T20:28:28.603Z,21.60
2022-07-31T20:30:55.579Z,21.50
2022-07-31T20:33:22.584Z,21.56
2022-07-31T20:35:50.256Z,21.43
2022-07-31T20:38:22.445Z,21.25
2022-07-31T20:40:54.545Z,21.36
2022-07-31T20:43:27.368Z,21.07
2022-07-31T20:45:59.638Z,20.77
2022-07-31T20:48:32.598Z,20.99
2022-07-31T20:51:02.620Z,20.92
2022-07-31T20:53:35.195Z,20.81
2022-07-31T20:56:02.309Z,20.40
2022-07-31T20:58:29.234Z,20.59
2022-07-31T21:00:56.344Z,20.44
2022-07-31T21:03:23.525Z,20.58
2022-07-31T21:05:50.495Z,20.57
2022-07-31T21:08:18.718Z,20.16
2022-07-31T21:10:45.755Z,20.27
2022-07-31T21:13:13.114Z,20.09
2022-07-31T21:15:43.129Z,20.06
2022-07-31T21:18:17.124Z,19.98
2022-07-31T21:20:50.195Z,19.45
2022-07-31T21:23:20.287Z,19.10
2022-07-31T21:25:47.394Z,19.31
2022-07-31T21:28:14.694Z,19.28
2022-07-31T21:30:41.810Z,19.39
2022-07-31T21:33:09.888Z,19.34
2022-07-31T21:35:40.072Z,19.62
2022-07-31T21:38:12.665Z,19.11
2022-07-31T21:40:40.833Z,19.58
2022-07-31T21:43:09.246Z,19.34
2022-07-31T21:45:50.622Z,19.22
2022-07-31T21:48:25.660Z,18.88
2022-07-31T21:50:54.452Z,18.71
2022-07-31T21:53:21.700Z,18.99
2022-07-31T21:55:48.792Z,18.97
2022-07-31T21:58:16.116Z,18.89
2022-07-31T22:00:44.596Z,19.06
2022-07-31T22:03:11.893Z,18.99
2022-07-31T22:05:57.629Z,19.08
2022-07-31T22:08:24.661Z,18.77
2022-07-31T22:10:52.416Z,18.86
2022-07-31T22:13:20.036Z,18.59
2022-07-31T22:15:58.906Z,18.17
2022-07-31T22:18:33.603Z,18.48
2022-07-31T22:21:05.188Z,18.21
2022-07-31T22:23:32.616Z,18.20
2022-07-31T22:26:00.172Z,18.40
2022-07-31T22:28:28.261Z,18.34
2022-07-31T22:30:56.371Z,18.33
2022-07-31T22:33:24.066Z,18.20
2022-07-31T22:35:59.803Z,18.04
2022-07-31T22:38:29.353Z,18.09
2022-07-31T22:40:59.552Z,18.01
2022-07-31T22:44:12.897Z,18.12
2022-07-31T22:46:15.048Z,17.78
2022-07-31T22:48:42.246Z,17.59
2022-07-31T22:51:10.834Z,17.80
2022-07-31T22:53:42.514Z,18.00
2022-07-31T22:56:09.388Z,17.74
2022-07-31T22:58:41.366Z,17.88
2022-07-31T23:01:08.190Z,17.87
2022-07-31T23:03:35.030Z,17.82
2022-07-31T23:06:02.626Z,18.04
2022-07-31T23:08:54.623Z,17.93
2022-07-31T23:11:24.787Z,17.83
2022-07-31T23:13:52.143Z,17.54
2022-07-31T23:16:20.591Z,17.60
2022-07-31T23:18:48.510Z,17.43
2022-07-31T23:21:15.623Z,17.38
2022-07-31T23:23:48.998Z,17.43
2022-07-31T23:26:19.526Z,17.48
2022-07-31T23:28:47.740Z,17.48
2022-07-31T23:31:17.892Z,17.69
2022-07-31T23:33:45.851Z,17.61
2022-07-31T23:36:13.631Z,17.27
2022-07-31T23:38:41.657Z,16.98
2022-07-31T23:41:09.417Z,16.44
2022-07-31T23:43:39.200Z,16.79
2022-07-31T23:46:08.914Z,16.97
2022-07-31T23:48:36.089Z,17.04
2022-07-31T23:51:03.225Z,17.02
2022-07-31T23:53:30.147Z,16.96
2022-07-31T23:56:03.338Z,16.97
2022-07-31T23:58:31.817Z,16.63
